createdAt,value
2023-01-09T00:05:02.962Z,95.07
2023-01-09T00:10:28.059Z,94.79
2023-01-09T00:15:50.122Z,94.00
2023-01-09T00:21:13.335Z,93.16
2023-01-09T00:26:36.271Z,92.40
2023-01-09T00:32:00.225Z,92.12
2023-01-09T00:37:23.325Z,92.03
2023-01-09T00:42:50.081Z,92.18
2023-01-09T00:48:17.613Z,91.77
2023-01-09T00:53:42.331Z,92.71
2023-01-09T00:59:05.319Z,92.81
2023-01-09T01:04:45.619Z,92.58
2023-01-09T01:10:20.901Z,91.74
2023-01-09T01:15:45.269Z,90.84
2023-01-09T01:21:12.417Z,90.03
2023-01-09T01:26:34.561Z,90.50
2023-01-09T01:31:56.885Z,90.64
2023-01-09T01:37:19.161Z,90.41
2023-01-09T01:42:49.533Z,90.60
2023-01-09T01:48:23.620Z,90.73
2023-01-09T01:53:54.395Z,90.86
2023-01-09T01:59:26.801Z,91.25
2023-01-09T02:10:57.831Z,90.69
2023-01-09T02:16:53.339Z,90.13
2023-01-09T02:22:38.223Z,90.09
2023-01-09T02:28:13.428Z,89.67
2023-01-09T02:34:02.425Z,89.68
2023-01-09T02:39:36.882Z,90.33
2023-01-09T02:45:02.184Z,90.56
2023-01-09T02:50:55.924Z,90.13
2023-01-09T02:56:45.271Z,90.03
2023-01-09T03:02:37.046Z,89.68
2023-01-09T03:08:16.676Z,89.10
2023-01-09T03:14:05.856Z,88.90
2023-01-09T03:19:41.752Z,88.84
2023-01-09T03:25:41.282Z,88.17
2023-01-09T03:31:09.533Z,87.34
2023-01-09T03:36:42.075Z,87.15
2023-01-09T03:42:06.651Z,87.51
2023-01-09T03:47:28.565Z,87.80
2023-01-09T03:52:53.382Z,88.20
2023-01-09T03:58:20.040Z,87.11
2023-01-09T04:03:43.690Z,86.88
2023-01-09T04:09:09.144Z,86.69
2023-01-09T04:14:35.067Z,86.40
2023-01-09T04:20:02.813Z,86.47
2023-01-09T04:25:35.409Z,86.97
2023-01-09T04:30:58.106Z,86.54
2023-01-09T04:36:24.746Z,86.91
2023-01-09T04:41:52.842Z,87.42
2023-01-09T04:47:15.983Z,87.50
2023-01-09T04:52:44.403Z,87.60
2023-01-09T04:58:09.847Z,87.45
2023-01-09T05:03:35.646Z,86.21
2023-01-09T05:08:57.957Z,85.42
2023-01-09T05:14:20.156Z,87.28
2023-01-09T05:19:46.212Z,86.84
2023-01-09T05:25:08.574Z,87.08
2023-01-09T05:30:30.842Z,86.81
2023-01-09T05:35:52.983Z,85.89
2023-01-09T05:41:15.155Z,85.28
2023-01-09T05:46:37.310Z,84.45
2023-01-09T05:51:59.902Z,84.76
2023-01-09T05:57:22.210Z,85.54
2023-01-09T06:02:44.388Z,86.07
2023-01-09T06:08:06.804Z,86.44
2023-01-09T06:13:39.552Z,86.83
2023-01-09T06:19:11.937Z,87.25
2023-01-09T06:24:36.727Z,87.66
2023-01-09T06:30:02.940Z,87.54
2023-01-09T06:35:26.813Z,87.72
2023-01-09T06:40:52.353Z,87.53
2023-01-09T06:46:15.443Z,88.07
2023-01-09T06:51:37.824Z,89.16
2023-01-09T06:57:03.439Z,90.89
2023-01-09T07:02:25.755Z,91.80
2023-01-09T07:07:51.157Z,90.64
2023-01-09T07:13:13.003Z,90.34
2023-01-09T07:18:34.862Z,92.32
2023-01-09T07:23:56.965Z,93.20
2023-01-09T07:29:21.813Z,93.71
2023-01-09T07:34:46.973Z,94.39
2023-01-09T07:40:10.400Z,96.67
2023-01-09T07:45:32.053Z,96.63
2023-01-09T07:50:53.983Z,96.93
2023-01-09T07:56:15.775Z,98.12
2023-01-09T08:01:37.841Z,99.07
2023-01-09T08:07:00.158Z,99.50
2023-01-09T08:12:22.420Z,99.93
2023-01-09T08:17:48.261Z,98.84
2023-01-09T08:23:13.476Z,99.04
2023-01-09T08:28:35.884Z,100.00
2023-01-09T08:34:03.661Z,100.00
2023-01-09T08:39:26.114Z,100.00
2023-01-09T08:45:07.603Z,100.00
2023-01-09T08:50:29.955Z,100.00
2023-01-09T08:55:52.639Z,100.00
2023-01-09T09:01:15.357Z,100.00
2023-01-09T09:06:43.523Z,100.00
2023-01-09T09:12:19.443Z,100.00
2023-01-09T09:18:03.008Z,100.00
2023-01-09T09:24:16.164Z,100.00
2023-01-09T09:36:35.597Z,100.00
2023-01-09T09:49:40.538Z,100.00
2023-01-09T09:55:14.734Z,100.00
2023-01-09T10:00:39.294Z,100.00
2023-01-09T10:06:08.346Z,100.00
2023-01-09T10:11:41.482Z,100.00
2023-01-09T10:17:30.854Z,100.00
2023-01-09T10:23:12.274Z,100.00
2023-01-09T10:29:11.710Z,100.00
2023-01-09T10:34:36.920Z,100.00
2023-01-09T10:40:30.286Z,100.00
2023-01-09T10:45:56.664Z,100.00
2023-01-09T10:51:24.864Z,100.00
2023-01-09T10:57:22.667Z,100.00
2023-01-09T11:02:48.474Z,100.00
2023-01-09T11:08:18.244Z,100.00
2023-01-09T11:13:46.414Z,100.00
2023-01-09T11:19:16.517Z,100.00
2023-01-09T11:24:39.060Z,100.00
2023-01-09T11:30:16.350Z,100.00
2023-01-09T11:35:38.888Z,100.00
2023-01-09T11:41:07.255Z,100.00
2023-01-09T11:46:44.480Z,100.00
2023-01-09T11:52:21.177Z,100.00
2023-01-09T11:57:43.387Z,100.00
2023-01-09T12:03:11.746Z,100.00
2023-01-09T12:09:07.793Z,100.00
2023-01-09T12:14:47.563Z,100.00
2023-01-09T12:20:29.114Z,100.00
2023-01-09T12:26:06.449Z,100.00
2023-01-09T12:31:53.487Z,100.00
2023-01-09T12:37:30.834Z,100.00
2023-01-09T12:43:14.542Z,100.00
2023-01-09T12:49:05.711Z,100.00
2023-01-09T12:54:34.798Z,100.00
2023-01-09T13:00:31.412Z,100.00
2023-01-09T13:05:54.356Z,100.00
2023-01-09T13:11:53.554Z,100.00
2023-01-09T13:17:30.907Z,100.00
2023-01-09T13:22:58.869Z,100.00
2023-01-09T13:28:27.811Z,100.00
2023-01-09T13:34:14.164Z,100.00
2023-01-09T13:39:40.411Z,100.00
2023-01-09T13:45:18.424Z,100.00
2023-01-09T13:50:44.998Z,100.00
2023-01-09T13:56:07.480Z,100.00
2023-01-09T14:01:36.036Z,100.00
2023-01-09T14:07:22.749Z,100.00
2023-01-09T14:12:48.448Z,100.00
2023-01-09T14:18:24.630Z,100.00
2023-01-09T14:23:55.277Z,100.00
2023-01-09T14:29:36.930Z,100.00
2023-01-09T14:35:12.311Z,100.00
2023-01-09T14:40:36.673Z,100.00
2023-01-09T14:46:07.979Z,100.00
2023-01-09T14:51:35.624Z,100.00
2023-01-09T14:57:01.447Z,100.00
2023-01-09T15:02:24.838Z,100.00
2023-01-09T15:07:54.223Z,100.00
2023-01-09T15:13:30.299Z,100.00
2023-01-09T15:18:57.402Z,100.00
2023-01-09T15:24:31.161Z,100.00
2023-01-09T15:29:56.503Z,100.00
2023-01-09T15:35:23.017Z,100.00
2023-01-09T15:40:53.443Z,100.00
2023-01-09T15:46:23.040Z,100.00
2023-01-09T15:51:47.654Z,100.00
2023-01-09T15:57:37.195Z,100.00
2023-01-09T16:03:12.556Z,100.00
2023-01-09T16:09:01.005Z,100.00
2023-01-09T16:14:25.552Z,100.00
2023-01-09T16:20:01.337Z,100.00
2023-01-09T16:25:35.732Z,100.00
2023-01-09T16:31:11.412Z,100.00
2023-01-09T16:36:39.182Z,100.00
2023-01-09T16:42:29.232Z,100.00
2023-01-09T16:47:52.876Z,100.00
2023-01-09T16:53:18.114Z,100.00
2023-01-09T16:58:50.670Z,100.00
2023-01-09T17:04:18.756Z,100.00
2023-01-09T17:09:42.838Z,100.00
2023-01-09T17:15:19.190Z,100.00
2023-01-09T17:20:56.724Z,100.00
2023-01-09T17:26:53.973Z,100.00
2023-01-09T17:32:27.584Z,100.00
2023-01-09T17:37:59.552Z,100.00
2023-01-09T17:43:28.243Z,100.00
2023-01-09T17:49:09.413Z,100.00
2023-01-09T17:54:41.671Z,100.00
2023-01-09T18:00:40.406Z,100.00
2023-01-09T18:06:10.587Z,100.00
2023-01-09T18:11:37.050Z,100.00
2023-01-09T18:17:01.664Z,100.00
2023-01-09T18:22:33.483Z,100.00
2023-01-09T18:28:18.984Z,100.00
2023-01-09T18:33:44.492Z,100.00
2023-01-09T18:39:19.265Z,100.00
2023-01-09T18:44:52.021Z,100.00
2023-01-09T18:50:15.590Z,100.00
2023-01-09T18:55:38.542Z,100.00
2023-01-09T19:01:02.226Z,100.00
2023-01-09T19:06:35.882Z,100.00
2023-01-09T19:12:02.161Z,100.00
2023-01-09T19:17:29.501Z,100.00
2023-01-09T19:22:56.725Z,100.00
2023-01-09T19:28:22.743Z,100.00
2023-01-09T19:33:46.064Z,100.00
2023-01-09T19:39:13.731Z,100.00
2023-01-09T19:44:36.312Z,100.00
2023-01-09T19:50:05.009Z,100.00
2023-01-09T19:55:30.133Z,100.00
2023-01-09T20:00:54.639Z,100.00
2023-01-09T20:06:22.902Z,100.00
2023-01-09T20:11:45.309Z,100.00
2023-01-09T20:17:07.142Z,100.00
2023-01-09T20:22:29.544Z,100.00
2023-01-09T20:27:51.825Z,100.00
2023-01-09T20:33:14.274Z,100.00
2023-01-09T20:38:40.144Z,100.00
2023-01-09T20:44:09.023Z,100.00
2023-01-09T20:49:31.456Z,100.00
2023-01-09T20:54:53.103Z,100.00
2023-01-09T21:00:16.093Z,100.00
2023-01-09T21:05:41.622Z,100.00
2023-01-09T21:11:06.242Z,100.00
2023-01-09T21:16:28.760Z,100.00
2023-01-09T21:21:53.267Z,100.00
2023-01-09T21:27:15.955Z,100.00
2023-01-09T21:32:41.356Z,100.00
2023-01-09T21:38:04.057Z,100.00
2023-01-09T21:43:49.636Z,100.00
2023-01-09T21:49:12.103Z,100.00
2023-01-09T21:54:34.860Z,100.00
2023-01-09T21:59:59.408Z,100.00
2023-01-09T22:05:32.493Z,100.00
2023-01-09T22:11:16.100Z,100.00
2023-01-09T22:16:38.272Z,100.00
2023-01-09T22:22:00.597Z,100.00
2023-01-09T22:27:22.272Z,100.00
2023-01-09T22:32:44.333Z,100.00
2023-01-09T22:38:06.847Z,100.00
2023-01-09T22:43:30.090Z,100.00
2023-01-09T22:48:52.276Z,100.00
2023-01-09T22:54:14.144Z,100.00
2023-01-09T22:59:36.312Z,100.00
2023-01-09T23:05:04.272Z,100.00
2023-01-09T23:10:27.848Z,100.00
2023-01-09T23:15:50.767Z,100.00
2023-01-09T23:21:15.375Z,100.00
2023-01-09T23:26:41.499Z,100.00
2023-01-09T23:32:05.534Z,100.00
2023-01-09T23:37:28.195Z,100.00
2023-01-09T23:43:11.090Z,100.00
2023-01-09T23:49:38.978Z,100.00
2023-01-09T23:55:56.953Z,100.00
